createdAt,value
2022-10-19T00:00:50.536Z,206.95
2022-10-19T00:03:23.136Z,217.57
2022-10-19T00:05:51.226Z,212.93
2022-10-19T00:08:19.076Z,219.40
2022-10-19T00:10:48.113Z,217.88
2022-10-19T00:13:15.920Z,217.40
2022-10-19T00:15:45.179Z,213.48
2022-10-19T00:18:13.066Z,204.13
2022-10-19T00:20:42.585Z,209.75
2022-10-19T00:23:10.699Z,213.18
2022-10-19T00:25:38.563Z,214.73
2022-10-19T00:28:06.834Z,214.48
2022-10-19T00:30:37.884Z,205.45
2022-10-19T00:33:05.957Z,206.63
2022-10-19T00:35:33.823Z,205.02
2022-10-19T00:38:03.177Z,211.27
2022-10-19T00:40:30.971Z,206.00
2022-10-19T00:42:58.960Z,204.48
2022-10-19T00:45:26.904Z,210.80
2022-10-19T00:47:55.397Z,195.95
2022-10-19T00:50:23.394Z,197.82
2022-10-19T00:52:51.197Z,178.95
2022-10-19T00:55:20.570Z,195.20
2022-10-19T00:57:48.625Z,200.30
2022-10-19T01:00:16.564Z,204.57
2022-10-19T01:02:44.778Z,207.00
2022-10-19T01:05:13.167Z,204.40
2022-10-19T01:07:41.025Z,198.07
2022-10-19T01:10:09.766Z,212.05
2022-10-19T01:12:52.745Z,206.57
2022-10-19T01:15:32.621Z,205.18
2022-10-19T01:18:08.568Z,206.73
2022-10-19T01:21:20.050Z,203.13
2022-10-19T01:24:11.198Z,204.20
2022-10-19T01:27:04.600Z,201.95
2022-10-19T01:29:54.622Z,197.65
2022-10-19T01:32:27.380Z,200.98
2022-10-19T01:35:04.188Z,208.18
2022-10-19T01:37:38.710Z,205.45
2022-10-19T01:40:10.786Z,208.65
2022-10-19T01:42:46.048Z,201.73
2022-10-19T01:45:21.123Z,196.85
2022-10-19T01:47:53.167Z,209.57
2022-10-19T01:50:28.579Z,204.57
2022-10-19T01:52:58.399Z,206.60
2022-10-19T01:55:28.651Z,208.23
2022-10-19T01:58:00.958Z,202.60
2022-10-19T02:00:32.649Z,208.13
2022-10-19T02:03:02.197Z,215.18
2022-10-19T02:05:32.869Z,205.18
2022-10-19T02:08:05.823Z,204.48
2022-10-19T02:10:36.403Z,209.05
2022-10-19T02:13:06.104Z,206.18
2022-10-19T02:15:37.974Z,197.70
2022-10-19T02:18:07.151Z,199.48
2022-10-19T02:20:37.478Z,196.80
2022-10-19T02:23:06.059Z,199.00
2022-10-19T02:25:34.593Z,202.45
2022-10-19T02:28:03.704Z,195.48
2022-10-19T02:30:31.859Z,192.57
2022-10-19T02:33:01.432Z,204.55
2022-10-19T02:35:29.389Z,200.68
2022-10-19T02:38:02.800Z,203.70
2022-10-19T02:40:35.883Z,197.25
2022-10-19T02:43:08.802Z,201.02
2022-10-19T02:45:40.052Z,202.18
2022-10-19T02:48:13.985Z,204.27
2022-10-19T02:50:44.848Z,199.73
2022-10-19T02:53:12.953Z,200.88
2022-10-19T02:58:14.242Z,203.70
2022-10-19T03:00:42.422Z,204.77
2022-10-19T03:03:12.196Z,210.02
2022-10-19T03:05:40.467Z,209.38
2022-10-19T03:08:08.328Z,211.05
2022-10-19T03:10:36.133Z,207.25
2022-10-19T03:13:04.080Z,205.02
2022-10-19T03:15:31.953Z,209.52
2022-10-19T03:17:59.718Z,204.02
2022-10-19T03:20:29.015Z,198.98
2022-10-19T03:22:56.813Z,205.70
2022-10-19T03:25:24.676Z,208.07
2022-10-19T03:27:52.445Z,210.38
2022-10-19T03:30:20.257Z,211.90
2022-10-19T03:32:48.256Z,211.00
2022-10-19T03:35:16.044Z,211.27
2022-10-19T03:37:45.293Z,207.30
2022-10-19T03:40:13.139Z,206.90
2022-10-19T03:42:40.902Z,206.43
2022-10-19T03:45:09.641Z,205.57
2022-10-19T03:47:37.412Z,200.27
2022-10-19T03:50:06.145Z,204.20
2022-10-19T03:52:34.254Z,205.45
2022-10-19T03:55:03.405Z,209.98
2022-10-19T03:57:31.433Z,206.13
2022-10-19T03:59:59.501Z,203.18
2022-10-19T04:02:27.322Z,203.50
2022-10-19T04:04:55.102Z,205.20
2022-10-19T04:07:23.191Z,202.57
2022-10-19T04:09:51.106Z,202.00
2022-10-19T04:12:20.255Z,199.73
2022-10-19T04:14:56.808Z,205.15
2022-10-19T04:17:25.955Z,200.00
2022-10-19T04:19:53.763Z,202.63
2022-10-19T04:22:21.545Z,204.85
2022-10-19T04:24:49.631Z,208.27
2022-10-19T04:27:17.795Z,201.93
2022-10-19T04:29:46.980Z,207.13
2022-10-19T04:32:14.846Z,199.70
2022-10-19T04:34:42.775Z,194.43
2022-10-19T04:37:10.637Z,192.30
2022-10-19T04:39:41.132Z,197.43
2022-10-19T04:42:09.181Z,200.57
2022-10-19T04:44:37.388Z,197.60
2022-10-19T04:47:06.663Z,201.98
2022-10-19T04:49:34.482Z,200.40
2022-10-19T04:52:02.412Z,198.45
2022-10-19T04:54:30.402Z,199.80
2022-10-19T04:56:58.227Z,198.80
2022-10-19T04:59:26.208Z,203.05
2022-10-19T05:01:54.082Z,202.88
2022-10-19T05:04:23.292Z,208.60
2022-10-19T05:06:51.144Z,201.93
2022-10-19T05:09:21.597Z,205.55
2022-10-19T05:11:51.657Z,201.75
2022-10-19T05:14:19.629Z,206.27
2022-10-19T05:16:47.560Z,203.77
2022-10-19T05:19:15.763Z,202.00
2022-10-19T05:21:44.971Z,202.32
2022-10-19T05:24:14.403Z,204.13
2022-10-19T05:26:42.505Z,200.77
2022-10-19T05:29:12.942Z,198.73
2022-10-19T05:31:41.187Z,194.95
2022-10-19T05:34:09.144Z,203.40
2022-10-19T05:36:39.530Z,189.35
2022-10-19T05:39:13.192Z,192.98
2022-10-19T05:41:41.880Z,187.88
2022-10-19T05:44:18.957Z,195.93
2022-10-19T05:46:47.441Z,186.65
2022-10-19T05:49:16.348Z,187.60
2022-10-19T05:51:44.632Z,194.05
2022-10-19T05:54:14.663Z,195.65
2022-10-19T05:56:43.286Z,196.95
2022-10-19T05:59:15.421Z,197.70
2022-10-19T06:01:43.382Z,199.50
2022-10-19T06:04:14.031Z,208.15
2022-10-19T06:06:43.175Z,191.23
2022-10-19T06:09:11.312Z,191.25
2022-10-19T06:11:42.350Z,199.00
2022-10-19T06:14:14.563Z,201.07
2022-10-19T06:16:42.632Z,202.65
2022-10-19T06:19:10.558Z,203.13
2022-10-19T06:21:40.695Z,198.75
2022-10-19T06:24:12.932Z,197.65
2022-10-19T06:26:42.272Z,198.68
2022-10-19T06:29:10.881Z,198.50
2022-10-19T06:31:38.998Z,198.40
2022-10-19T06:34:08.634Z,201.73
2022-10-19T06:36:36.543Z,200.35
2022-10-19T06:39:05.622Z,204.35
2022-10-19T06:41:34.239Z,199.25
2022-10-19T06:44:03.527Z,203.93
2022-10-19T06:46:32.336Z,204.60
2022-10-19T06:49:02.287Z,206.38
2022-10-19T06:51:32.022Z,213.82
2022-10-19T06:53:59.934Z,195.43
2022-10-19T06:56:28.202Z,202.52
2022-10-19T06:58:57.005Z,196.05
2022-10-19T07:01:26.626Z,193.13
2022-10-19T07:03:55.405Z,196.07
2022-10-19T07:06:23.680Z,206.35
2022-10-19T07:08:51.895Z,201.52
2022-10-19T07:11:22.459Z,201.23
2022-10-19T07:13:51.173Z,201.45
2022-10-19T07:16:21.313Z,200.88
2022-10-19T07:18:52.563Z,198.57
2022-10-19T07:21:22.868Z,200.95
2022-10-19T07:23:51.572Z,197.63
2022-10-19T07:26:23.813Z,203.40
2022-10-19T07:28:51.905Z,198.38
2022-10-19T07:31:22.000Z,205.13
2022-10-19T07:33:55.104Z,207.93
2022-10-19T07:36:25.101Z,205.98
2022-10-19T07:38:53.760Z,206.15
2022-10-19T07:41:23.468Z,202.65
2022-10-19T07:43:52.391Z,206.20
2022-10-19T07:46:22.663Z,213.82
2022-10-19T07:48:51.058Z,205.20
2022-10-19T07:51:21.412Z,207.60
2022-10-19T07:53:49.906Z,202.50
2022-10-19T07:56:20.948Z,207.18
2022-10-19T07:58:51.035Z,202.57
2022-10-19T08:01:21.795Z,207.23
2022-10-19T08:04:48.653Z,205.35
2022-10-19T08:06:39.712Z,200.90
2022-10-19T08:09:07.681Z,206.88
2022-10-19T08:11:36.794Z,206.32
2022-10-19T08:14:05.531Z,207.75
2022-10-19T08:16:37.476Z,205.32
2022-10-19T08:19:08.512Z,206.50
2022-10-19T08:21:37.457Z,205.10
2022-10-19T08:24:08.284Z,206.88
2022-10-19T08:26:38.143Z,204.30
2022-10-19T08:29:08.769Z,210.82
2022-10-19T08:31:36.846Z,210.52
2022-10-19T08:34:05.160Z,202.63
2022-10-19T08:36:35.751Z,209.00
2022-10-19T08:39:05.806Z,207.57
2022-10-19T08:41:45.583Z,213.10
2022-10-19T08:44:29.598Z,210.10
2022-10-19T08:47:07.711Z,206.63
2022-10-19T08:49:36.041Z,208.15
2022-10-19T08:52:08.653Z,203.90
2022-10-19T08:54:42.622Z,210.80
2022-10-19T08:57:25.442Z,196.60
2022-10-19T09:00:00.150Z,205.07
2022-10-19T09:02:41.297Z,208.80
2022-10-19T09:05:17.437Z,191.13
2022-10-19T09:07:54.993Z,200.70
2022-10-19T09:10:28.049Z,190.55
2022-10-19T09:13:01.814Z,190.52
2022-10-19T09:15:36.327Z,204.27
2022-10-19T09:18:04.846Z,206.68
2022-10-19T09:20:38.121Z,204.43
2022-10-19T09:23:13.594Z,204.95
2022-10-19T09:25:42.094Z,214.70
2022-10-19T09:28:27.327Z,204.02
2022-10-19T09:31:00.859Z,206.13
2022-10-19T09:33:34.030Z,204.98
2022-10-19T09:36:04.254Z,214.52
2022-10-19T09:38:32.874Z,205.70
2022-10-19T09:41:14.252Z,217.18
2022-10-19T09:43:51.015Z,210.13
2022-10-19T09:46:29.609Z,209.27
2022-10-19T09:49:01.750Z,208.70
2022-10-19T09:51:42.417Z,213.23
2022-10-19T09:54:28.873Z,220.23
2022-10-19T09:56:58.061Z,223.48
2022-10-19T09:59:35.818Z,220.55
2022-10-19T10:02:18.996Z,222.80
2022-10-19T10:04:48.769Z,217.48
2022-10-19T10:07:19.378Z,223.90
2022-10-19T10:09:48.473Z,223.32
2022-10-19T10:12:17.997Z,231.70
2022-10-19T10:14:51.454Z,227.05
2022-10-19T10:17:22.213Z,226.70
2022-10-19T10:20:08.135Z,234.82
2022-10-19T10:22:37.929Z,237.18
2022-10-19T10:25:17.431Z,230.00
2022-10-19T10:27:56.578Z,230.15
2022-10-19T10:30:28.261Z,240.02
2022-10-19T10:33:04.695Z,234.70
2022-10-19T10:35:53.991Z,243.80
2022-10-19T10:38:25.174Z,239.45
2022-10-19T10:40:56.283Z,240.15
2022-10-19T10:43:31.486Z,232.18
2022-10-19T10:46:07.342Z,240.43
2022-10-19T10:48:39.904Z,246.65
2022-10-19T10:51:21.155Z,257.25
2022-10-19T10:53:49.673Z,245.55
2022-10-19T10:56:27.709Z,243.30
2022-10-19T10:59:02.030Z,247.55
2022-10-19T11:01:38.271Z,244.25
2022-10-19T11:04:11.292Z,251.00
2022-10-19T11:06:46.929Z,236.68
2022-10-19T11:09:23.013Z,246.75
2022-10-19T11:11:55.975Z,237.07
2022-10-19T11:14:30.008Z,228.05
2022-10-19T11:17:04.461Z,229.35
2022-10-19T11:19:37.143Z,235.63
2022-10-19T11:22:16.259Z,226.00
2022-10-19T11:24:54.392Z,244.95
2022-10-19T11:27:35.408Z,232.80
2022-10-19T11:30:12.143Z,242.73
2022-10-19T11:32:50.154Z,236.18
2022-10-19T11:35:47.015Z,246.30
2022-10-19T11:38:30.378Z,244.80
2022-10-19T11:41:23.376Z,239.27
2022-10-19T11:44:07.048Z,255.88
2022-10-19T11:46:43.484Z,242.13
2022-10-19T11:49:23.898Z,240.45
2022-10-19T11:51:58.284Z,239.57
2022-10-19T11:54:39.186Z,246.00
2022-10-19T11:57:13.950Z,241.52
2022-10-19T12:00:13.729Z,253.75
2022-10-19T12:03:05.825Z,238.75
2022-10-19T12:05:47.609Z,250.23
2022-10-19T12:08:30.413Z,243.00
2022-10-19T12:11:06.356Z,240.70
2022-10-19T12:13:43.117Z,247.07
2022-10-19T12:16:13.960Z,246.52
2022-10-19T12:18:47.041Z,247.13
2022-10-19T12:21:23.993Z,235.50
2022-10-19T12:23:53.091Z,243.05
2022-10-19T12:26:23.462Z,252.70
2022-10-19T12:28:55.710Z,246.50
2022-10-19T12:31:26.670Z,244.63
2022-10-19T12:34:02.817Z,250.57
2022-10-19T12:36:39.430Z,245.55
2022-10-19T12:39:16.360Z,248.13
2022-10-19T12:41:52.404Z,248.00
2022-10-19T12:44:35.721Z,254.98
2022-10-19T12:47:11.396Z,258.75
2022-10-19T12:49:45.947Z,258.38
2022-10-19T12:52:17.628Z,259.73
2022-10-19T12:54:45.618Z,263.50
2022-10-19T12:57:29.532Z,263.70
2022-10-19T13:00:06.489Z,264.73
2022-10-19T13:02:37.766Z,267.75
2022-10-19T13:05:06.737Z,269.08
2022-10-19T13:07:37.966Z,261.95
2022-10-19T13:10:09.707Z,259.50
2022-10-19T13:12:47.131Z,263.48
2022-10-19T13:15:51.024Z,265.95
2022-10-19T13:19:07.249Z,295.38
2022-10-19T13:22:26.049Z,272.35
2022-10-19T13:25:33.505Z,268.63
2022-10-19T13:28:39.581Z,275.67
2022-10-19T13:31:26.096Z,274.70
2022-10-19T13:33:56.714Z,273.23
2022-10-19T13:36:27.074Z,274.70
2022-10-19T13:39:23.350Z,268.05
2022-10-19T13:41:57.318Z,263.52
2022-10-19T13:44:48.282Z,266.50
2022-10-19T13:47:47.825Z,253.75
2022-10-19T13:50:34.078Z,271.25
2022-10-19T13:53:23.294Z,255.02
2022-10-19T13:56:25.998Z,263.75
2022-10-19T13:59:32.417Z,250.90
2022-10-19T14:02:38.727Z,248.25
2022-10-19T14:05:23.846Z,252.48
2022-10-19T14:08:04.867Z,249.85
2022-10-19T14:10:56.130Z,249.77
2022-10-19T14:13:22.487Z,248.98
2022-10-19T14:16:03.693Z,278.75
2022-10-19T14:18:36.109Z,265.08
2022-10-19T14:21:19.589Z,262.30
2022-10-19T14:23:55.432Z,260.83
2022-10-19T14:26:26.844Z,268.80
2022-10-19T14:28:57.243Z,273.35
2022-10-19T14:31:31.253Z,280.58
2022-10-19T14:34:03.890Z,261.15
2022-10-19T14:36:38.041Z,266.98
2022-10-19T14:39:07.848Z,264.20
2022-10-19T14:41:37.859Z,255.15
2022-10-19T14:44:31.420Z,251.45
2022-10-19T14:47:01.683Z,245.07
2022-10-19T14:49:31.222Z,247.80
2022-10-19T14:52:06.555Z,248.77
2022-10-19T14:54:38.145Z,266.95
2022-10-19T14:57:10.245Z,267.55
2022-10-19T14:59:44.946Z,255.68
2022-10-19T15:02:19.237Z,252.85
2022-10-19T15:04:49.670Z,245.65
2022-10-19T15:07:21.812Z,255.43
2022-10-19T15:09:54.377Z,247.68
2022-10-19T15:12:26.882Z,251.65
2022-10-19T15:14:55.372Z,258.20
2022-10-19T15:17:26.856Z,247.95
2022-10-19T15:19:58.515Z,255.27
2022-10-19T15:22:39.775Z,246.45
2022-10-19T15:25:35.436Z,249.85
2022-10-19T15:28:34.868Z,250.45
2022-10-19T15:31:11.242Z,243.00
2022-10-19T15:33:40.711Z,245.30
2022-10-19T15:36:17.144Z,252.30
2022-10-19T15:38:46.333Z,251.60
2022-10-19T15:41:22.321Z,247.43
2022-10-19T15:43:52.922Z,253.25
2022-10-19T15:47:01.973Z,248.82
2022-10-19T15:49:54.645Z,242.63
2022-10-19T15:52:25.031Z,249.07
2022-10-19T15:54:54.531Z,250.27
2022-10-19T15:57:30.030Z,264.00
2022-10-19T16:00:02.580Z,262.90
2022-10-19T16:02:30.480Z,247.10
2022-10-19T16:04:58.305Z,254.27
2022-10-19T16:07:33.434Z,252.07
2022-10-19T16:10:01.668Z,244.80
2022-10-19T16:12:30.101Z,250.23
2022-10-19T16:14:57.978Z,255.43
2022-10-19T16:17:26.125Z,255.32
2022-10-19T16:19:53.979Z,254.13
2022-10-19T16:22:23.328Z,247.32
2022-10-19T16:25:05.110Z,243.93
2022-10-19T16:27:34.569Z,237.38
2022-10-19T16:30:03.141Z,244.38
2022-10-19T16:32:31.255Z,251.27
2022-10-19T16:34:59.127Z,239.13
2022-10-19T16:37:27.206Z,239.05
2022-10-19T16:39:59.250Z,239.55
2022-10-19T16:42:29.773Z,238.20
2022-10-19T16:44:58.549Z,236.65
2022-10-19T16:47:28.815Z,229.23
2022-10-19T16:50:00.900Z,235.57
2022-10-19T16:52:29.073Z,238.77
2022-10-19T16:54:58.573Z,237.77
2022-10-19T16:57:29.618Z,241.52
2022-10-19T16:59:57.727Z,240.25
2022-10-19T17:02:25.551Z,236.35
2022-10-19T17:04:53.380Z,238.70
2022-10-19T17:07:21.565Z,229.82
2022-10-19T17:09:53.709Z,235.00
2022-10-19T17:12:24.310Z,234.45
2022-10-19T17:14:52.325Z,257.98
2022-10-19T17:17:21.053Z,248.65
2022-10-19T17:19:49.607Z,243.13
2022-10-19T17:22:17.485Z,235.65
2022-10-19T17:24:46.580Z,238.98
2022-10-19T17:27:14.826Z,234.55
2022-10-19T17:29:44.184Z,244.93
2022-10-19T17:32:12.059Z,234.07
2022-10-19T17:34:40.296Z,228.70
2022-10-19T17:37:08.124Z,235.00
2022-10-19T17:39:35.954Z,238.82
2022-10-19T17:42:05.038Z,233.40
2022-10-19T17:44:33.188Z,230.57
2022-10-19T17:47:05.113Z,236.88
2022-10-19T17:49:33.103Z,229.05
2022-10-19T17:52:00.930Z,223.48
2022-10-19T17:54:28.808Z,238.65
2022-10-19T17:56:59.166Z,230.15
2022-10-19T17:59:35.003Z,227.02
2022-10-19T18:02:09.143Z,229.07
2022-10-19T18:04:37.397Z,230.85
2022-10-19T18:07:05.311Z,229.05
2022-10-19T18:09:33.100Z,223.43
2022-10-19T18:12:04.917Z,227.27
2022-10-19T18:14:35.220Z,224.82
2022-10-19T18:17:03.103Z,226.45
2022-10-19T18:19:32.662Z,227.57
2022-10-19T18:22:00.511Z,233.93
2022-10-19T18:24:28.847Z,217.82
2022-10-19T18:26:57.140Z,226.95
2022-10-19T18:29:27.132Z,232.10
2022-10-19T18:31:55.359Z,217.05
2022-10-19T18:34:25.491Z,217.77
2022-10-19T18:36:55.301Z,219.38
2022-10-19T18:39:23.835Z,211.73
2022-10-19T18:41:54.509Z,217.65
2022-10-19T18:44:26.455Z,216.98
2022-10-19T18:46:55.835Z,212.55
2022-10-19T18:49:23.998Z,213.35
2022-10-19T18:51:55.158Z,210.07
2022-10-19T18:54:26.358Z,228.40
2022-10-19T18:56:54.855Z,211.20
2022-10-19T18:59:23.073Z,212.93
2022-10-19T19:01:51.341Z,212.90
2022-10-19T19:04:19.519Z,214.90
2022-10-19T19:06:47.599Z,218.00
2022-10-19T19:09:17.342Z,211.13
2022-10-19T19:11:46.676Z,217.55
2022-10-19T19:14:16.427Z,216.65
2022-10-19T19:16:46.114Z,208.20
2022-10-19T19:19:16.291Z,223.77
2022-10-19T19:21:45.055Z,212.55
2022-10-19T19:24:14.938Z,213.18
2022-10-19T19:26:46.812Z,218.63
2022-10-19T19:29:16.340Z,203.18
2022-10-19T19:31:44.569Z,219.90
2022-10-19T19:34:13.034Z,209.75
2022-10-19T19:36:47.946Z,204.90
2022-10-19T19:39:17.128Z,200.55
2022-10-19T19:41:45.050Z,210.35
2022-10-19T19:44:12.871Z,210.38
2022-10-19T19:46:42.268Z,215.88
2022-10-19T19:49:10.143Z,207.75
2022-10-19T19:51:38.184Z,209.45
2022-10-19T19:54:06.285Z,205.05
2022-10-19T19:56:34.170Z,207.48
2022-10-19T19:59:04.202Z,220.63
2022-10-19T20:01:33.165Z,214.05
2022-10-19T20:06:37.029Z,205.65
2022-10-19T20:09:06.185Z,202.77
2022-10-19T20:11:38.342Z,208.77
2022-10-19T20:14:09.308Z,203.57
2022-10-19T20:16:37.519Z,199.23
2022-10-19T20:19:10.705Z,200.25
2022-10-19T20:21:38.633Z,215.52
2022-10-19T20:24:07.215Z,206.10
2022-10-19T20:26:36.924Z,195.55
2022-10-19T20:29:05.609Z,198.02
2022-10-19T20:31:39.363Z,197.63
2022-10-19T20:34:14.044Z,188.00
2022-10-19T20:36:42.865Z,184.00
2022-10-19T20:39:11.177Z,189.10
2022-10-19T20:41:39.679Z,186.20
2022-10-19T20:44:07.667Z,194.85
2022-10-19T20:46:36.974Z,200.73
2022-10-19T20:49:04.943Z,186.45
2022-10-19T20:51:36.785Z,182.38
2022-10-19T20:54:06.280Z,185.55
2022-10-19T20:56:35.535Z,183.30
2022-10-19T20:59:05.812Z,179.85
2022-10-19T21:01:35.533Z,180.20
2022-10-19T21:04:05.147Z,174.85
2022-10-19T21:06:36.512Z,181.85
2022-10-19T21:09:04.713Z,180.68
2022-10-19T21:11:34.567Z,183.55
2022-10-19T21:14:05.077Z,193.95
2022-10-19T21:16:34.093Z,205.57
2022-10-19T21:19:03.563Z,196.75
2022-10-19T21:21:35.233Z,190.43
2022-10-19T21:24:05.545Z,190.48
2022-10-19T21:26:34.841Z,201.95
2022-10-19T21:29:03.179Z,198.35
2022-10-19T21:31:31.943Z,197.68
2022-10-19T21:33:59.764Z,193.30
2022-10-19T21:36:27.585Z,188.05
2022-10-19T21:38:57.617Z,190.82
2022-10-19T21:41:26.540Z,182.32
2022-10-19T21:43:54.781Z,189.73
2022-10-19T21:46:24.189Z,185.30
2022-10-19T21:48:53.392Z,177.30
2022-10-19T21:51:29.385Z,173.93
2022-10-19T21:53:59.398Z,167.32
2022-10-19T21:56:28.432Z,166.60
2022-10-19T21:58:56.484Z,176.25
2022-10-19T22:01:26.278Z,171.88
2022-10-19T22:03:58.419Z,193.80
2022-10-19T22:06:26.692Z,192.55
2022-10-19T22:08:55.254Z,194.48
2022-10-19T22:11:25.192Z,186.98
2022-10-19T22:13:55.783Z,186.38
2022-10-19T22:16:24.130Z,194.02
2022-10-19T22:18:52.570Z,188.43
2022-10-19T22:21:23.358Z,187.32
2022-10-19T22:23:55.459Z,173.45
2022-10-19T22:26:26.826Z,175.45
2022-10-19T22:28:56.234Z,177.70
2022-10-19T22:31:24.675Z,192.18
2022-10-19T22:33:52.522Z,187.95
2022-10-19T22:36:20.349Z,191.20
2022-10-19T22:38:48.144Z,183.25
2022-10-19T22:41:16.215Z,192.07
2022-10-19T22:43:45.555Z,187.95
2022-10-19T22:46:13.386Z,193.98
2022-10-19T22:48:41.177Z,187.40
2022-10-19T22:51:09.260Z,184.35
2022-10-19T22:53:37.078Z,181.70
2022-10-19T22:56:05.514Z,181.90
2022-10-19T22:58:33.837Z,177.10
2022-10-19T23:01:06.947Z,183.52
2022-10-19T23:03:35.300Z,187.13
2022-10-19T23:06:03.116Z,183.80
2022-10-19T23:08:31.902Z,184.13
2022-10-19T23:10:59.736Z,181.73
2022-10-19T23:13:27.851Z,179.55
2022-10-19T23:15:55.695Z,172.55
2022-10-19T23:18:24.972Z,172.23
2022-10-19T23:20:57.257Z,171.55
2022-10-19T23:23:25.672Z,164.30
2022-10-19T23:26:01.314Z,163.80
2022-10-19T23:28:29.776Z,159.93
2022-10-19T23:30:58.655Z,166.32
2022-10-19T23:33:27.949Z,157.55
2022-10-19T23:35:55.729Z,170.27
2022-10-19T23:38:23.573Z,180.25
2022-10-19T23:40:51.366Z,167.95
2022-10-19T23:43:19.182Z,172.55
2022-10-19T23:45:47.292Z,188.68
2022-10-19T23:48:15.181Z,157.80
2022-10-19T23:50:44.708Z,160.20
2022-10-19T23:53:13.289Z,165.55
2022-10-19T23:55:41.343Z,160.98
2022-10-19T23:58:09.565Z,158.98
